• Join FlightAware (Why Join?)
  • Login
  • US Flag 
10:36AM EDT


 

Airport Tracker/Info


-or-


 

Live Flight TrackerFlight Track Log ✈ VH-FGR ✈ 22-Jan-2014 ✈ YTNK / TCA - YBAS / ASP

Flight Track Log - Related Links

Times and Time Zones

All times are in EST time to prevent confusion due to time zone crossing. See the VH-FGR flight status page for this flight to view local times or setup timezone preferences in your user account.

Time Position Orientation Groundspeed Altitude Reporting Facility
EST Latitude Longitude Course Direction KTS MPH feet Rate Location/Type
01:24AM -19.6886 134.1794 261° West 23,000  Level Aus ATC (Calculated)
01:24AM -19.6888 134.1778 184° South 23,000  Level Aus ATC (Calculated)
01:25AM -19.7429 134.1740 184° South 23,000  Level Aus ATC (Calculated)
01:27AM -19.8467 134.1665 184° South  Level FlightAware Approximate
01:28AM -19.9116 134.1618 184° South  Level FlightAware Approximate
01:28AM -19.9049 134.1637 185° South 23,000  Level Aus ATC (Calculated)
01:29AM -19.9765 134.1572 184° South  Level FlightAware Approximate
01:30AM -20.0087 134.1561 184° South  Level FlightAware Approximate
01:31AM -20.0736 134.1514 184° South  Level FlightAware Approximate
01:32AM -20.1385 134.1467 184° South  Level FlightAware Approximate
01:33AM -20.2034 134.1419 184° South  Level FlightAware Approximate
01:34AM -20.2683 134.1372 184° South  Level FlightAware Approximate
01:35AM -20.3333 134.1324 184° South  Level FlightAware Approximate
01:36AM -20.3982 134.1277 184° South  Level FlightAware Approximate
01:37AM -20.4631 134.1230 184° South  Level FlightAware Approximate
01:38AM -20.5280 134.1182 184° South  Level FlightAware Approximate
01:39AM -20.5929 134.1134 184° South  Level FlightAware Approximate
01:40AM -20.6578 134.1087 184° South  Level FlightAware Approximate
01:40AM -20.6077 134.1124 184° South 23,000  Level Aus ATC (Calculated)
01:41AM -20.7158 134.1044 184° South 23,000  Level Aus ATC (Calculated)
01:42AM -20.7332 134.1031 184° South  Level FlightAware Approximate
01:43AM -20.7872 134.0992 184° South  Level FlightAware Approximate
01:44AM -20.8521 134.0944 184° South  Level FlightAware Approximate
01:45AM -20.9170 134.0896 184° South  Level FlightAware Approximate
01:46AM -20.9819 134.0849 184° South  Level FlightAware Approximate
01:47AM -21.0469 134.0801 184° South  Level FlightAware Approximate
01:48AM -21.1118 134.0753 184° South  Level FlightAware Approximate
01:49AM -21.1767 134.0705 184° South  Level FlightAware Approximate
01:50AM -21.2416 134.0657 184° South  Level FlightAware Approximate
01:51AM -21.3065 134.0616 184° South  Level Estimated
01:52AM -21.3714 134.0569 184° South  Level FlightAware Approximate
01:52AM -21.3104 134.0605 184° South 23,000  Level Aus ATC (Calculated)
01:54AM -21.4121 134.0531 184° South  Level FlightAware Approximate
01:55AM -21.4771 134.0484 184° South  Level FlightAware Approximate
01:55AM -21.5431 134.0436 North 23,000  Level Aus ATC (Calculated)
01:56AM -21.5420 134.0437 184° South  Level FlightAware Approximate
01:56AM -21.6325 134.0371 184° South 23,000  Level Aus ATC (Calculated)
01:57AM -21.6448 134.0362 184° South  Level FlightAware Approximate
01:57AM -21.6325 134.0371 184° South 23,000  Level Aus ATC (Calculated)
01:58AM -21.6974 134.0323 184° South  Level FlightAware Approximate
01:59AM -21.7623 134.0276 184° South  Level FlightAware Approximate
02:00AM -21.8272 134.0228 184° South  Level FlightAware Approximate
02:00AM -21.9004 134.0175 North 23,000  Level Aus ATC (Calculated)
02:01AM -21.8921 134.0181 184° South  Level FlightAware Approximate
02:02AM -21.9880 134.0110 184° South  Level FlightAware Approximate
02:03AM -22.0529 134.0063 184° South  Level FlightAware Approximate
02:04AM -22.1178 134.0015 184° South  Level FlightAware Approximate
02:05AM -22.1828 133.9967 184° South  Level FlightAware Approximate
02:06AM -22.2477 133.9920 184° South  Level FlightAware Approximate
02:07AM -22.3126 133.9872 184° South  Level FlightAware Approximate
02:08AM -22.3775 133.9824 184° South  Level FlightAware Approximate
02:09AM -22.4424 133.9776 184° South  Level FlightAware Approximate
02:10AM -22.5073 133.9728 184° South  Level FlightAware Approximate
02:11AM -22.5722 133.9680 184° South  Level FlightAware Approximate
02:12AM -22.6371 133.9632 184° South  Level FlightAware Approximate
02:13AM -22.7021 133.9598 184° South  Level Estimated
02:14AM -22.7670 133.9550 184° South  Level FlightAware Approximate
02:14AM -22.9184 133.9425 184° South 500  Level Aus ATC (Calculated)
02:15AM -22.9833 133.9377 184° South  Level FlightAware Approximate
02:15AM -23.1058 133.9288 North 500  Level Aus ATC (Calculated)
02:16AM -23.0482 133.9330 184° South  Level FlightAware Approximate
02:17AM -23.1858 133.9229 184° South  Level FlightAware Approximate
02:17AM -23.1682 133.9242 184° South 500  Level Aus ATC (Calculated)
02:19AM -23.2937 133.9150 184° South  Level FlightAware Approximate
02:19AM -23.3556 133.9105 184° South 500  Level Aus ATC (Calculated)
02:21AM -23.4692 133.9021 184° South  Level FlightAware Approximate
02:21AM -23.5429 133.8967 North 500  Level Aus ATC (Calculated)
02:22AM -23.5341 133.8973 184° South  Level FlightAware Approximate
02:22AM -23.6054 133.8921 184° South 500  Level Aus ATC (Calculated)
02:23AM -23.6446 133.8892 184° South  Level FlightAware Approximate
02:23AM -23.6678 133.8875 360° North 500  Level Aus ATC (Calculated)
02:23AM -23.6678 133.8875 184° South 500  Level Aus ATC (Calculated)
02:25AM -23.7576 133.8808 184° South  Level FlightAware Approximate
02:25AM -23.8083 133.9009 38° Northeast  Level Aus ATC (Calculated)
02:26AM -23.8067 133.9022 184° South  Level Estimated
02:27AM -23.8067 133.9022 307° West  Level Estimated
02:28AM -23.8067 133.9022 184° South  Level Estimated
02:29AM -23.8067 133.9022 184° South  Level Estimated
02:30AM -23.8067 133.9022 184° South  Level Estimated
02:31AM -23.8067 133.9022 184° South  Level Estimated
02:32AM -23.8067 133.9022 184° South  Level Estimated
02:33AM -23.8067 133.9022 184° South  Level Estimated
02:34AM -23.8067 133.9022 184° South  Level Estimated
02:35AM -23.8067 133.9022 184° South  Level Estimated
02:36AM -23.8067 133.9022 184° South  Level Estimated
02:37AM -23.8067 133.9022 184° South  Level Estimated
02:38AM -23.8067 133.9022 184° South  Level Estimated
02:39AM -23.8067 133.9022 184° South  Level Estimated
02:40AM -23.8067 133.9022 184° South  Level Estimated
02:41AM -23.8067 133.9022 184° South  Level Estimated
02:42AM -23.8067 133.9022 184° South  Level Estimated
02:43AM -23.8067 133.9022 184° South  Level Estimated
02:44AM -23.8067 133.9022 184° South  Level Estimated